Terminal Aerodrome Forecast
Issued by NWS Newport/Morehead City, NC

Home | Current Version | Previous Version | Graphics & Text | Print | Product List | Glossary On
Versions: 1 2 3 4 5 6 7 8 9 10 11 12 13
085
FTUS42 KMHX 181139
TAFEWN
TAF
KEWN 181139Z 1812/1912 23006KT P6SM SKC
     FM181700 23010G16KT P6SM BKN250
     FM190200 21004KT P6SM BKN100
     FM191000 26004KT P6SM SCT070=

USA.gov is the U.S. government's official web portal to all federal, state and local government web resources and services.